Thief River Falls, MN

11:44 PM CDT on May 28, 2015 (GMT -0500)
Thief River Falls Regional | | Change Station
CLOSE
Current Station
Airport
Location: Thief River Falls,
Elevation: 1115 ft
Nearby Weather Stations

Elev 1115 ft 48.06 °N, 96.18 °W | Updated 29 minutes ago

Overcast
Overcast
64 °F
Feels Like 64 °F
N
0
Wind Variable Wind from North

Today
High -- | Low -- °F
--% Chance of Precip.
Yesterday
High -- | Low -- °F
Precip. -- in
5:32 AM 9:12 PM
Waxing Gibbous, 81% visible
Pressure 29.85 in
Visibility 5.0 miles
Clouds Mostly Cloudy 4000 ft
Overcast 10000 ft
Dew Point 63 °F
Humidity 94%
Rainfall 1.25 in
Snow Depth Not available.
UV 0 out of 12
Pollen 6.10 out of 12
Air Quality Not available.
Flu Activity Sporadic
METAR KTVF 290415Z AUTO 00000KT 5SM BKN040 OVC100 18/17 A2985 RMK AO1

More Conditions Fewer Conditions

Pressure 29.85 in
Visibility 5.0 miles
Clouds Mostly Cloudy 4000 ft
Overcast 10000 ft
Dew Point 63 °F
Humidity 94%
Rainfall 1.25 in
Snow Depth Not available.
UV 0 out of 12
Pollen 6.10 out of 12
Air Quality Not available.
Flu Activity Sporadic
METAR KTVF 290415Z AUTO 00000KT 5SM BKN040 OVC100 18/17 A2985 RMK AO1

More Conditions Fewer Conditions

10-Day Weather Forecast

Almanac

Astronomy

May. 28, 2015 Rise Set
Actual Time
Civil Twilight
Nautical Twilight
Astronomical Twilight
Moon
Length of Visible Light
Length of Day
Tomorrow will be .
, % of the Moon is Illuminated

Today's Extremes

State Highs State Lows

Community

WunderPhotos

Upload Photos

1,825,209 photos uploaded!

WunderBlogs® & News

Nearby

Air Quality

  Air Quality AQ Index Pollutant
Not available.

Snow Depth

Station Depth Elevation

Earthquake Activity

City Distance Mag. Time & Date
Minimum magnitude displayed is 2.5.

Coastal Water Temperatures

Place Temperature

Stations

Nearby Weather Stations

Station Location Temp. Windchill Dew Point Humidity Wind Precip. Elev Updated Type